sensor_id;sensor_type;location;lat;lon;timestamp;P1;durP1;ratioP1;P2;durP2;ratioP2
25609;SDS011;13479;49.044;8.716;2024-02-15T00:02:01;8.30;;;2.60;;
25609;SDS011;13479;49.044;8.716;2024-02-15T00:04:26;6.07;;;2.30;;
25609;SDS011;13479;49.044;8.716;2024-02-15T00:06:52;5.18;;;2.30;;
25609;SDS011;13479;49.044;8.716;2024-02-15T00:09:17;4.40;;;1.80;;
25609;SDS011;13479;49.044;8.716;2024-02-15T00:11:43;6.45;;;1.70;;
25609;SDS011;13479;49.044;8.716;2024-02-15T00:14:08;4.68;;;1.60;;
25609;SDS011;13479;49.044;8.716;2024-02-15T00:16:34;3.35;;;1.38;;
25609;SDS011;13479;49.044;8.716;2024-02-15T00:19:00;3.95;;;1.50;;
25609;SDS011;13479;49.044;8.716;2024-02-15T00:21:25;4.47;;;1.50;;
25609;SDS011;13479;49.044;8.716;2024-02-15T00:23:50;6.05;;;1.60;;
25609;SDS011;13479;49.044;8.716;2024-02-15T00:26:16;3.42;;;1.20;;
25609;SDS011;13479;49.044;8.716;2024-02-15T00:28:41;6.32;;;2.10;;
25609;SDS011;13479;49.044;8.716;2024-02-15T00:31:07;3.47;;;1.45;;
25609;SDS011;13479;49.044;8.716;2024-02-15T00:33:33;4.85;;;1.60;;
25609;SDS011;13479;49.044;8.716;2024-02-15T00:35:58;5.65;;;1.13;;
25609;SDS011;13479;49.044;8.716;2024-02-15T00:38:23;2.90;;;1.30;;
25609;SDS011;13479;49.044;8.716;2024-02-15T00:40:49;5.07;;;1.40;;
25609;SDS011;13479;49.044;8.716;2024-02-15T00:43:14;3.72;;;1.10;;
25609;SDS011;13479;49.044;8.716;2024-02-15T00:45:39;4.72;;;1.60;;
25609;SDS011;13479;49.044;8.716;2024-02-15T00:48:05;4.78;;;1.30;;
25609;SDS011;13479;49.044;8.716;2024-02-15T00:50:31;4.60;;;1.70;;
25609;SDS011;13479;49.044;8.716;2024-02-15T00:52:56;6.38;;;2.00;;
25609;SDS011;13479;49.044;8.716;2024-02-15T00:55:23;5.28;;;2.28;;
25609;SDS011;13479;49.044;8.716;2024-02-15T00:57:48;4.57;;;2.20;;
25609;SDS011;13479;49.044;8.716;2024-02-15T01:00:13;4.22;;;1.95;;
25609;SDS011;13479;49.044;8.716;2024-02-15T01:02:39;4.55;;;2.15;;
25609;SDS011;13479;49.044;8.716;2024-02-15T01:05:04;3.65;;;1.73;;
25609;SDS011;13479;49.044;8.716;2024-02-15T01:07:30;4.50;;;1.98;;
25609;SDS011;13479;49.044;8.716;2024-02-15T01:09:55;3.22;;;1.80;;
25609;SDS011;13479;49.044;8.716;2024-02-15T01:12:21;6.07;;;1.90;;
25609;SDS011;13479;49.044;8.716;2024-02-15T01:14:46;3.97;;;1.83;;
25609;SDS011;13479;49.044;8.716;2024-02-15T01:17:12;4.45;;;1.80;;
25609;SDS011;13479;49.044;8.716;2024-02-15T01:19:37;5.07;;;1.60;;
25609;SDS011;13479;49.044;8.716;2024-02-15T01:22:03;4.43;;;2.00;;
25609;SDS011;13479;49.044;8.716;2024-02-15T01:24:28;5.78;;;1.65;;
25609;SDS011;13479;49.044;8.716;2024-02-15T01:26:55;5.18;;;1.70;;
25609;SDS011;13479;49.044;8.716;2024-02-15T01:29:20;3.17;;;1.60;;
25609;SDS011;13479;49.044;8.716;2024-02-15T01:31:45;3.35;;;1.70;;
25609;SDS011;13479;49.044;8.716;2024-02-15T01:34:11;4.97;;;1.85;;
25609;SDS011;13479;49.044;8.716;2024-02-15T01:36:36;4.70;;;1.65;;
25609;SDS011;13479;49.044;8.716;2024-02-15T01:39:01;5.30;;;1.42;;
25609;SDS011;13479;49.044;8.716;2024-02-15T01:41:26;3.75;;;1.67;;
25609;SDS011;13479;49.044;8.716;2024-02-15T01:43:52;4.45;;;1.60;;
25609;SDS011;13479;49.044;8.716;2024-02-15T01:46:17;5.13;;;2.05;;
25609;SDS011;13479;49.044;8.716;2024-02-15T01:48:44;5.28;;;1.60;;
25609;SDS011;13479;49.044;8.716;2024-02-15T01:51:11;4.82;;;1.77;;
25609;SDS011;13479;49.044;8.716;2024-02-15T01:53:39;5.13;;;1.80;;
25609;SDS011;13479;49.044;8.716;2024-02-15T01:56:07;3.72;;;1.80;;
25609;SDS011;13479;49.044;8.716;2024-02-15T01:58:32;7.57;;;1.80;;
25609;SDS011;13479;49.044;8.716;2024-02-15T02:00:59;3.47;;;1.85;;
25609;SDS011;13479;49.044;8.716;2024-02-15T02:03:25;7.30;;;1.92;;
25609;SDS011;13479;49.044;8.716;2024-02-15T02:05:50;4.22;;;2.08;;
25609;SDS011;13479;49.044;8.716;2024-02-15T02:08:16;4.07;;;1.95;;
25609;SDS011;13479;49.044;8.716;2024-02-15T02:10:41;5.07;;;2.13;;
25609;SDS011;13479;49.044;8.716;2024-02-15T02:13:07;3.83;;;2.05;;
25609;SDS011;13479;49.044;8.716;2024-02-15T02:15:34;5.30;;;2.03;;
25609;SDS011;13479;49.044;8.716;2024-02-15T02:18:02;8.38;;;2.30;;
25609;SDS011;13479;49.044;8.716;2024-02-15T02:20:27;6.57;;;2.10;;
25609;SDS011;13479;49.044;8.716;2024-02-15T02:22:54;4.20;;;2.00;;
25609;SDS011;13479;49.044;8.716;2024-02-15T02:25:25;5.43;;;2.20;;
25609;SDS011;13479;49.044;8.716;2024-02-15T02:27:53;5.03;;;2.20;;
25609;SDS011;13479;49.044;8.716;2024-02-15T02:30:20;5.97;;;2.15;;
25609;SDS011;13479;49.044;8.716;2024-02-15T02:32:47;5.88;;;2.50;;
25609;SDS011;13479;49.044;8.716;2024-02-15T02:35:12;5.28;;;2.63;;
25609;SDS011;13479;49.044;8.716;2024-02-15T02:37:38;7.30;;;2.55;;
25609;SDS011;13479;49.044;8.716;2024-02-15T02:40:05;8.25;;;2.50;;
25609;SDS011;13479;49.044;8.716;2024-02-15T02:42:33;5.47;;;2.38;;
25609;SDS011;13479;49.044;8.716;2024-02-15T02:45:10;5.28;;;2.35;;
25609;SDS011;13479;49.044;8.716;2024-02-15T02:47:36;4.20;;;2.10;;
25609;SDS011;13479;49.044;8.716;2024-02-15T02:50:01;3.72;;;2.13;;
25609;SDS011;13479;49.044;8.716;2024-02-15T02:52:28;5.95;;;2.35;;
25609;SDS011;13479;49.044;8.716;2024-02-15T02:54:53;5.15;;;2.30;;
25609;SDS011;13479;49.044;8.716;2024-02-15T02:57:18;4.65;;;2.10;;
25609;SDS011;13479;49.044;8.716;2024-02-15T02:59:43;3.15;;;1.67;;
25609;SDS011;13479;49.044;8.716;2024-02-15T03:02:09;6.35;;;2.10;;
25609;SDS011;13479;49.044;8.716;2024-02-15T03:04:35;14.75;;;2.47;;
25609;SDS011;13479;49.044;8.716;2024-02-15T03:07:00;5.05;;;1.90;;
25609;SDS011;13479;49.044;8.716;2024-02-15T03:09:25;4.72;;;1.80;;
25609;SDS011;13479;49.044;8.716;2024-02-15T03:11:54;6.32;;;2.10;;
25609;SDS011;13479;49.044;8.716;2024-02-15T03:14:20;5.82;;;1.80;;
25609;SDS011;13479;49.044;8.716;2024-02-15T03:16:46;4.65;;;1.80;;
25609;SDS011;13479;49.044;8.716;2024-02-15T03:19:11;5.47;;;2.17;;
25609;SDS011;13479;49.044;8.716;2024-02-15T03:21:37;4.22;;;1.83;;
25609;SDS011;13479;49.044;8.716;2024-02-15T03:24:02;5.65;;;2.10;;
25609;SDS011;13479;49.044;8.716;2024-02-15T03:26:31;3.78;;;1.70;;
25609;SDS011;13479;49.044;8.716;2024-02-15T03:29:03;5.20;;;1.88;;
25609;SDS011;13479;49.044;8.716;2024-02-15T03:31:29;5.18;;;1.73;;
25609;SDS011;13479;49.044;8.716;2024-02-15T03:33:56;4.82;;;1.77;;
25609;SDS011;13479;49.044;8.716;2024-02-15T03:36:22;5.10;;;1.83;;
25609;SDS011;13479;49.044;8.716;2024-02-15T03:38:48;3.00;;;1.52;;
25609;SDS011;13479;49.044;8.716;2024-02-15T03:41:13;3.38;;;1.33;;
25609;SDS011;13479;49.044;8.716;2024-02-15T03:43:39;4.43;;;1.90;;
25609;SDS011;13479;49.044;8.716;2024-02-15T03:46:04;4.75;;;1.50;;
25609;SDS011;13479;49.044;8.716;2024-02-15T03:48:30;3.50;;;1.58;;
25609;SDS011;13479;49.044;8.716;2024-02-15T03:50:57;4.30;;;1.60;;
25609;SDS011;13479;49.044;8.716;2024-02-15T03:53:23;3.10;;;1.50;;
25609;SDS011;13479;49.044;8.716;2024-02-15T03:55:48;5.05;;;1.38;;
25609;SDS011;13479;49.044;8.716;2024-02-15T03:58:14;6.00;;;1.42;;
25609;SDS011;13479;49.044;8.716;2024-02-15T04:00:39;4.55;;;1.13;;
25609;SDS011;13479;49.044;8.716;2024-02-15T04:03:05;4.05;;;1.30;;
25609;SDS011;13479;49.044;8.716;2024-02-15T04:05:30;5.25;;;1.30;;
25609;SDS011;13479;49.044;8.716;2024-02-15T04:07:56;4.05;;;1.20;;
25609;SDS011;13479;49.044;8.716;2024-02-15T04:10:21;4.68;;;1.30;;
25609;SDS011;13479;49.044;8.716;2024-02-15T04:12:47;2.53;;;1.17;;
25609;SDS011;13479;49.044;8.716;2024-02-15T04:15:12;5.60;;;1.20;;
25609;SDS011;13479;49.044;8.716;2024-02-15T04:17:39;4.30;;;1.30;;
25609;SDS011;13479;49.044;8.716;2024-02-15T04:20:05;4.28;;;1.30;;
25609;SDS011;13479;49.044;8.716;2024-02-15T04:22:31;3.28;;;1.15;;
25609;SDS011;13479;49.044;8.716;2024-02-15T04:25:02;4.40;;;1.60;;
25609;SDS011;13479;49.044;8.716;2024-02-15T04:27:28;2.35;;;1.10;;
25609;SDS011;13479;49.044;8.716;2024-02-15T04:29:53;4.93;;;1.38;;
25609;SDS011;13479;49.044;8.716;2024-02-15T04:32:19;9.05;;;1.38;;
25609;SDS011;13479;49.044;8.716;2024-02-15T04:34:44;3.33;;;1.30;;
25609;SDS011;13479;49.044;8.716;2024-02-15T04:37:11;4.10;;;1.60;;
25609;SDS011;13479;49.044;8.716;2024-02-15T04:39:38;6.07;;;1.33;;
25609;SDS011;13479;49.044;8.716;2024-02-15T04:42:04;5.05;;;1.63;;
25609;SDS011;13479;49.044;8.716;2024-02-15T04:44:36;2.70;;;1.23;;
25609;SDS011;13479;49.044;8.716;2024-02-15T04:47:05;3.33;;;1.33;;
25609;SDS011;13479;49.044;8.716;2024-02-15T04:49:31;5.90;;;1.40;;
25609;SDS011;13479;49.044;8.716;2024-02-15T04:51:57;5.25;;;1.27;;
25609;SDS011;13479;49.044;8.716;2024-02-15T04:54:22;3.20;;;1.60;;
25609;SDS011;13479;49.044;8.716;2024-02-15T04:56:47;4.03;;;1.50;;
25609;SDS011;13479;49.044;8.716;2024-02-15T04:59:13;5.15;;;1.70;;
25609;SDS011;13479;49.044;8.716;2024-02-15T05:01:40;5.47;;;1.67;;
25609;SDS011;13479;49.044;8.716;2024-02-15T05:04:07;4.97;;;1.75;;
25609;SDS011;13479;49.044;8.716;2024-02-15T05:06:36;3.45;;;1.85;;
25609;SDS011;13479;49.044;8.716;2024-02-15T05:09:05;5.88;;;1.90;;
25609;SDS011;13479;49.044;8.716;2024-02-15T05:11:36;5.95;;;2.05;;
25609;SDS011;13479;49.044;8.716;2024-02-15T05:14:05;6.30;;;2.10;;
25609;SDS011;13479;49.044;8.716;2024-02-15T05:16:31;3.05;;;1.50;;
25609;SDS011;13479;49.044;8.716;2024-02-15T05:18:57;3.58;;;1.85;;
25609;SDS011;13479;49.044;8.716;2024-02-15T05:21:23;4.05;;;1.40;;
25609;SDS011;13479;49.044;8.716;2024-02-15T05:23:48;3.65;;;1.30;;
25609;SDS011;13479;49.044;8.716;2024-02-15T05:26:13;6.53;;;1.48;;
25609;SDS011;13479;49.044;8.716;2024-02-15T05:28:41;2.67;;;1.20;;
25609;SDS011;13479;49.044;8.716;2024-02-15T05:31:19;4.95;;;1.10;;
25609;SDS011;13479;49.044;8.716;2024-02-15T05:33:46;3.03;;;1.20;;
25609;SDS011;13479;49.044;8.716;2024-02-15T05:36:15;2.88;;;1.10;;
25609;SDS011;13479;49.044;8.716;2024-02-15T05:38:45;2.75;;;1.38;;
25609;SDS011;13479;49.044;8.716;2024-02-15T05:41:11;3.03;;;1.23;;
25609;SDS011;13479;49.044;8.716;2024-02-15T05:43:37;4.85;;;1.38;;
25609;SDS011;13479;49.044;8.716;2024-02-15T05:46:03;3.80;;;1.20;;
25609;SDS011;13479;49.044;8.716;2024-02-15T05:48:29;3.55;;;1.10;;
25609;SDS011;13479;49.044;8.716;2024-02-15T05:50:55;2.83;;;1.38;;
25609;SDS011;13479;49.044;8.716;2024-02-15T05:53:22;2.75;;;1.20;;
25609;SDS011;13479;49.044;8.716;2024-02-15T05:55:48;5.30;;;1.30;;
25609;SDS011;13479;49.044;8.716;2024-02-15T05:58:14;3.00;;;1.50;;
25609;SDS011;13479;49.044;8.716;2024-02-15T06:00:40;4.90;;;1.55;;
25609;SDS011;13479;49.044;8.716;2024-02-15T06:03:06;3.47;;;1.35;;
25609;SDS011;13479;49.044;8.716;2024-02-15T06:05:31;3.17;;;1.25;;
25609;SDS011;13479;49.044;8.716;2024-02-15T06:07:57;4.03;;;1.60;;
25609;SDS011;13479;49.044;8.716;2024-02-15T06:10:23;3.05;;;1.05;;
25609;SDS011;13479;49.044;8.716;2024-02-15T06:12:49;3.30;;;0.95;;
25609;SDS011;13479;49.044;8.716;2024-02-15T06:15:14;4.55;;;1.17;;
25609;SDS011;13479;49.044;8.716;2024-02-15T06:17:42;4.13;;;1.05;;
25609;SDS011;13479;49.044;8.716;2024-02-15T06:20:10;3.58;;;1.13;;
25609;SDS011;13479;49.044;8.716;2024-02-15T06:22:43;5.20;;;2.00;;
25609;SDS011;13479;49.044;8.716;2024-02-15T06:25:09;4.30;;;1.60;;
25609;SDS011;13479;49.044;8.716;2024-02-15T06:27:38;5.10;;;1.55;;
25609;SDS011;13479;49.044;8.716;2024-02-15T06:30:09;5.65;;;1.48;;
25609;SDS011;13479;49.044;8.716;2024-02-15T06:32:53;3.47;;;1.50;;
25609;SDS011;13479;49.044;8.716;2024-02-15T06:35:37;4.35;;;1.17;;
25609;SDS011;13479;49.044;8.716;2024-02-15T06:38:21;2.70;;;1.20;;
25609;SDS011;13479;49.044;8.716;2024-02-15T06:41:07;2.95;;;1.13;;
25609;SDS011;13479;49.044;8.716;2024-02-15T06:43:32;1.92;;;0.77;;
25609;SDS011;13479;49.044;8.716;2024-02-15T06:45:59;4.80;;;1.00;;
25609;SDS011;13479;49.044;8.716;2024-02-15T06:48:24;3.25;;;0.90;;
25609;SDS011;13479;49.044;8.716;2024-02-15T06:50:51;2.00;;;0.80;;
25609;SDS011;13479;49.044;8.716;2024-02-15T06:53:16;6.07;;;1.25;;
25609;SDS011;13479;49.044;8.716;2024-02-15T06:55:42;2.28;;;0.95;;
25609;SDS011;13479;49.044;8.716;2024-02-15T06:58:07;4.03;;;1.00;;
25609;SDS011;13479;49.044;8.716;2024-02-15T07:00:33;3.85;;;0.63;;
25609;SDS011;13479;49.044;8.716;2024-02-15T07:02:58;4.03;;;1.02;;
25609;SDS011;13479;49.044;8.716;2024-02-15T07:05:23;3.22;;;1.00;;
25609;SDS011;13479;49.044;8.716;2024-02-15T07:07:51;4.20;;;0.95;;
25609;SDS011;13479;49.044;8.716;2024-02-15T07:10:17;3.20;;;1.00;;
25609;SDS011;13479;49.044;8.716;2024-02-15T07:12:42;5.10;;;1.20;;
25609;SDS011;13479;49.044;8.716;2024-02-15T07:15:09;6.20;;;1.05;;
25609;SDS011;13479;49.044;8.716;2024-02-15T07:17:34;2.30;;;0.90;;
25609;SDS011;13479;49.044;8.716;2024-02-15T07:20:02;3.42;;;0.90;;
25609;SDS011;13479;49.044;8.716;2024-02-15T07:22:30;3.00;;;1.38;;
25609;SDS011;13479;49.044;8.716;2024-02-15T07:24:56;3.72;;;1.02;;
25609;SDS011;13479;49.044;8.716;2024-02-15T07:27:21;5.45;;;1.75;;
25609;SDS011;13479;49.044;8.716;2024-02-15T07:29:50;3.92;;;1.27;;
25609;SDS011;13479;49.044;8.716;2024-02-15T07:32:15;3.75;;;1.40;;
25609;SDS011;13479;49.044;8.716;2024-02-15T07:34:42;7.57;;;1.17;;
25609;SDS011;13479;49.044;8.716;2024-02-15T07:37:08;6.78;;;1.23;;
25609;SDS011;13479;49.044;8.716;2024-02-15T07:39:34;5.65;;;1.40;;
25609;SDS011;13479;49.044;8.716;2024-02-15T07:42:01;4.00;;;1.17;;
25609;SDS011;13479;49.044;8.716;2024-02-15T07:44:29;3.50;;;1.08;;
25609;SDS011;13479;49.044;8.716;2024-02-15T07:46:57;3.42;;;1.45;;
25609;SDS011;13479;49.044;8.716;2024-02-15T07:49:24;2.88;;;1.42;;
25609;SDS011;13479;49.044;8.716;2024-02-15T07:51:49;6.43;;;1.60;;
25609;SDS011;13479;49.044;8.716;2024-02-15T07:54:18;7.22;;;1.70;;
25609;SDS011;13479;49.044;8.716;2024-02-15T07:56:45;5.88;;;1.33;;
25609;SDS011;13479;49.044;8.716;2024-02-15T07:59:14;3.35;;;1.30;;
25609;SDS011;13479;49.044;8.716;2024-02-15T08:01:44;4.43;;;1.25;;
25609;SDS011;13479;49.044;8.716;2024-02-15T08:04:12;5.03;;;1.13;;
25609;SDS011;13479;49.044;8.716;2024-02-15T08:06:37;6.43;;;1.48;;
25609;SDS011;13479;49.044;8.716;2024-02-15T08:09:03;7.70;;;1.85;;
25609;SDS011;13479;49.044;8.716;2024-02-15T08:11:31;4.95;;;1.10;;
25609;SDS011;13479;49.044;8.716;2024-02-15T08:13:57;4.63;;;1.35;;
25609;SDS011;13479;49.044;8.716;2024-02-15T08:16:24;5.43;;;1.20;;
25609;SDS011;13479;49.044;8.716;2024-02-15T08:18:53;4.90;;;1.20;;
25609;SDS011;13479;49.044;8.716;2024-02-15T08:21:26;4.15;;;1.35;;
25609;SDS011;13479;49.044;8.716;2024-02-15T08:23:52;3.78;;;1.40;;
25609;SDS011;13479;49.044;8.716;2024-02-15T08:26:17;7.80;;;1.67;;
25609;SDS011;13479;49.044;8.716;2024-02-15T08:28:42;4.13;;;1.30;;
25609;SDS011;13479;49.044;8.716;2024-02-15T08:31:08;4.75;;;1.17;;
25609;SDS011;13479;49.044;8.716;2024-02-15T08:33:35;3.88;;;1.20;;
25609;SDS011;13479;49.044;8.716;2024-02-15T08:36:03;3.33;;;1.02;;
25609;SDS011;13479;49.044;8.716;2024-02-15T08:38:30;3.28;;;1.10;;
25609;SDS011;13479;49.044;8.716;2024-02-15T08:40:55;3.95;;;1.20;;
25609;SDS011;13479;49.044;8.716;2024-02-15T08:43:20;4.85;;;1.20;;
25609;SDS011;13479;49.044;8.716;2024-02-15T08:45:46;4.80;;;1.00;;
25609;SDS011;13479;49.044;8.716;2024-02-15T08:48:11;3.15;;;0.90;;
25609;SDS011;13479;49.044;8.716;2024-02-15T08:50:36;3.78;;;1.17;;
25609;SDS011;13479;49.044;8.716;2024-02-15T08:53:02;3.00;;;1.30;;
25609;SDS011;13479;49.044;8.716;2024-02-15T08:55:31;4.93;;;1.92;;
25609;SDS011;13479;49.044;8.716;2024-02-15T08:57:57;8.07;;;1.80;;
25609;SDS011;13479;49.044;8.716;2024-02-15T09:00:22;4.78;;;1.42;;
25609;SDS011;13479;49.044;8.716;2024-02-15T09:02:49;2.78;;;1.13;;
25609;SDS011;13479;49.044;8.716;2024-02-15T09:05:14;5.72;;;1.33;;
25609;SDS011;13479;49.044;8.716;2024-02-15T09:07:43;6.47;;;1.20;;
25609;SDS011;13479;49.044;8.716;2024-02-15T09:10:12;2.35;;;0.90;;
25609;SDS011;13479;49.044;8.716;2024-02-15T09:12:39;3.42;;;0.93;;
25609;SDS011;13479;49.044;8.716;2024-02-15T09:15:08;4.50;;;1.17;;
25609;SDS011;13479;49.044;8.716;2024-02-15T09:17:35;2.97;;;1.10;;
25609;SDS011;13479;49.044;8.716;2024-02-15T09:22:32;4.32;;;1.23;;
25609;SDS011;13479;49.044;8.716;2024-02-15T09:24:58;2.92;;;1.00;;
25609;SDS011;13479;49.044;8.716;2024-02-15T09:27:23;5.30;;;0.98;;
25609;SDS011;13479;49.044;8.716;2024-02-15T09:29:48;2.47;;;0.95;;
25609;SDS011;13479;49.044;8.716;2024-02-15T09:32:13;13.35;;;0.95;;
25609;SDS011;13479;49.044;8.716;2024-02-15T09:34:39;6.65;;;1.10;;
25609;SDS011;13479;49.044;8.716;2024-02-15T09:37:05;1.60;;;0.70;;
25609;SDS011;13479;49.044;8.716;2024-02-15T09:39:30;4.05;;;1.00;;
25609;SDS011;13479;49.044;8.716;2024-02-15T09:41:55;2.78;;;0.80;;
25609;SDS011;13479;49.044;8.716;2024-02-15T09:44:23;2.33;;;1.00;;
25609;SDS011;13479;49.044;8.716;2024-02-15T09:46:55;3.70;;;1.00;;
25609;SDS011;13479;49.044;8.716;2024-02-15T09:49:28;3.25;;;1.00;;
25609;SDS011;13479;49.044;8.716;2024-02-15T09:51:54;5.57;;;0.90;;
25609;SDS011;13479;49.044;8.716;2024-02-15T09:54:21;4.68;;;1.10;;
25609;SDS011;13479;49.044;8.716;2024-02-15T09:56:47;6.82;;;0.90;;
25609;SDS011;13479;49.044;8.716;2024-02-15T09:59:14;2.70;;;0.60;;
25609;SDS011;13479;49.044;8.716;2024-02-15T10:01:40;2.75;;;0.80;;
25609;SDS011;13479;49.044;8.716;2024-02-15T10:04:07;2.58;;;0.80;;
25609;SDS011;13479;49.044;8.716;2024-02-15T10:06:32;3.90;;;0.85;;
25609;SDS011;13479;49.044;8.716;2024-02-15T10:09:23;3.22;;;0.90;;
25609;SDS011;13479;49.044;8.716;2024-02-15T10:11:55;3.92;;;0.95;;
25609;SDS011;13479;49.044;8.716;2024-02-15T10:14:28;2.88;;;0.70;;
25609;SDS011;13479;49.044;8.716;2024-02-15T10:16:54;3.65;;;1.00;;
25609;SDS011;13479;49.044;8.716;2024-02-15T10:19:20;4.88;;;0.90;;
25609;SDS011;13479;49.044;8.716;2024-02-15T10:21:54;2.88;;;0.50;;
25609;SDS011;13479;49.044;8.716;2024-02-15T10:24:23;2.78;;;0.80;;
25609;SDS011;13479;49.044;8.716;2024-02-15T10:26:59;2.72;;;0.65;;
25609;SDS011;13479;49.044;8.716;2024-02-15T10:29:29;1.27;;;0.70;;
25609;SDS011;13479;49.044;8.716;2024-02-15T10:31:56;1.05;;;0.60;;
25609;SDS011;13479;49.044;8.716;2024-02-15T10:34:23;4.43;;;0.70;;
25609;SDS011;13479;49.044;8.716;2024-02-15T10:36:50;3.40;;;0.80;;
25609;SDS011;13479;49.044;8.716;2024-02-15T10:39:19;1.85;;;0.65;;
25609;SDS011;13479;49.044;8.716;2024-02-15T10:41:45;4.18;;;0.80;;
25609;SDS011;13479;49.044;8.716;2024-02-15T10:44:16;2.55;;;0.68;;
25609;SDS011;13479;49.044;8.716;2024-02-15T10:46:48;1.80;;;0.90;;
25609;SDS011;13479;49.044;8.716;2024-02-15T10:49:20;2.83;;;0.80;;
25609;SDS011;13479;49.044;8.716;2024-02-15T10:51:59;3.53;;;1.00;;
25609;SDS011;13479;49.044;8.716;2024-02-15T10:57:28;1.67;;;0.60;;
25609;SDS011;13479;49.044;8.716;2024-02-15T10:59:56;2.55;;;0.70;;
25609;SDS011;13479;49.044;8.716;2024-02-15T11:04:55;2.20;;;0.60;;
25609;SDS011;13479;49.044;8.716;2024-02-15T11:07:28;1.23;;;0.60;;
25609;SDS011;13479;49.044;8.716;2024-02-15T11:09:55;3.40;;;0.65;;
25609;SDS011;13479;49.044;8.716;2024-02-15T11:12:24;2.63;;;0.80;;
25609;SDS011;13479;49.044;8.716;2024-02-15T11:14:53;3.33;;;0.70;;
25609;SDS011;13479;49.044;8.716;2024-02-15T11:20:04;2.22;;;0.80;;
25609;SDS011;13479;49.044;8.716;2024-02-15T11:22:37;1.60;;;0.90;;
25609;SDS011;13479;49.044;8.716;2024-02-15T11:25:04;2.65;;;0.63;;
25609;SDS011;13479;49.044;8.716;2024-02-15T11:27:34;2.38;;;0.70;;
25609;SDS011;13479;49.044;8.716;2024-02-15T11:30:02;2.08;;;0.60;;
25609;SDS011;13479;49.044;8.716;2024-02-15T11:32:49;2.60;;;1.00;;
25609;SDS011;13479;49.044;8.716;2024-02-15T11:35:26;3.15;;;0.95;;
25609;SDS011;13479;49.044;8.716;2024-02-15T11:37:54;3.17;;;0.80;;
25609;SDS011;13479;49.044;8.716;2024-02-15T11:40:26;1.38;;;0.60;;
25609;SDS011;13479;49.044;8.716;2024-02-15T11:45:24;1.95;;;0.60;;
25609;SDS011;13479;49.044;8.716;2024-02-15T11:47:51;4.45;;;1.08;;
25609;SDS011;13479;49.044;8.716;2024-02-15T11:50:19;3.92;;;0.70;;
25609;SDS011;13479;49.044;8.716;2024-02-15T11:52:49;3.08;;;0.73;;
25609;SDS011;13479;49.044;8.716;2024-02-15T11:55:19;4.00;;;0.80;;
25609;SDS011;13479;49.044;8.716;2024-02-15T11:57:58;3.92;;;1.27;;
25609;SDS011;13479;49.044;8.716;2024-02-15T12:00:30;2.55;;;0.70;;
25609;SDS011;13479;49.044;8.716;2024-02-15T12:03:14;2.25;;;0.57;;
25609;SDS011;13479;49.044;8.716;2024-02-15T12:05:59;1.45;;;0.60;;
25609;SDS011;13479;49.044;8.716;2024-02-15T12:08:44;3.70;;;0.75;;
25609;SDS011;13479;49.044;8.716;2024-02-15T12:11:31;3.63;;;0.60;;
25609;SDS011;13479;49.044;8.716;2024-02-15T12:14:15;1.35;;;0.50;;
25609;SDS011;13479;49.044;8.716;2024-02-15T12:17:00;1.55;;;0.80;;
25609;SDS011;13479;49.044;8.716;2024-02-15T12:19:46;3.85;;;0.80;;
25609;SDS011;13479;49.044;8.716;2024-02-15T12:22:14;0.65;;;0.52;;
25609;SDS011;13479;49.044;8.716;2024-02-15T12:24:40;3.63;;;0.70;;
25609;SDS011;13479;49.044;8.716;2024-02-15T12:27:05;2.40;;;0.73;;
25609;SDS011;13479;49.044;8.716;2024-02-15T12:29:31;1.67;;;0.60;;
25609;SDS011;13479;49.044;8.716;2024-02-15T12:31:58;4.78;;;0.60;;
25609;SDS011;13479;49.044;8.716;2024-02-15T12:34:24;3.67;;;0.55;;
25609;SDS011;13479;49.044;8.716;2024-02-15T12:36:49;1.95;;;0.70;;
25609;SDS011;13479;49.044;8.716;2024-02-15T12:39:14;2.85;;;0.70;;
25609;SDS011;13479;49.044;8.716;2024-02-15T12:41:49;5.53;;;0.80;;
25609;SDS011;13479;49.044;8.716;2024-02-15T12:44:16;2.35;;;0.80;;
25609;SDS011;13479;49.044;8.716;2024-02-15T12:46:42;1.75;;;0.80;;
25609;SDS011;13479;49.044;8.716;2024-02-15T12:49:09;2.67;;;0.90;;
25609;SDS011;13479;49.044;8.716;2024-02-15T12:51:38;4.38;;;0.80;;
25609;SDS011;13479;49.044;8.716;2024-02-15T12:54:08;3.55;;;0.80;;
25609;SDS011;13479;49.044;8.716;2024-02-15T12:56:39;3.15;;;0.90;;
25609;SDS011;13479;49.044;8.716;2024-02-15T12:59:04;2.92;;;0.75;;
25609;SDS011;13479;49.044;8.716;2024-02-15T13:01:31;1.92;;;0.75;;
25609;SDS011;13479;49.044;8.716;2024-02-15T13:03:56;3.70;;;0.70;;
25609;SDS011;13479;49.044;8.716;2024-02-15T13:06:22;1.88;;;0.60;;
25609;SDS011;13479;49.044;8.716;2024-02-15T13:08:49;5.10;;;0.93;;
25609;SDS011;13479;49.044;8.716;2024-02-15T13:11:14;2.25;;;0.70;;
25609;SDS011;13479;49.044;8.716;2024-02-15T13:13:40;3.90;;;0.75;;
25609;SDS011;13479;49.044;8.716;2024-02-15T13:16:07;3.63;;;0.82;;
25609;SDS011;13479;49.044;8.716;2024-02-15T13:18:32;2.47;;;0.70;;
25609;SDS011;13479;49.044;8.716;2024-02-15T13:20:58;4.18;;;0.85;;
25609;SDS011;13479;49.044;8.716;2024-02-15T13:23:23;3.15;;;0.80;;
25609;SDS011;13479;49.044;8.716;2024-02-15T13:25:50;1.30;;;0.50;;
25609;SDS011;13479;49.044;8.716;2024-02-15T13:28:17;1.40;;;0.60;;
25609;SDS011;13479;49.044;8.716;2024-02-15T13:30:43;1.73;;;0.60;;
25609;SDS011;13479;49.044;8.716;2024-02-15T13:33:10;1.30;;;0.45;;
25609;SDS011;13479;49.044;8.716;2024-02-15T13:35:38;1.95;;;0.70;;
25609;SDS011;13479;49.044;8.716;2024-02-15T13:38:03;2.25;;;0.63;;
25609;SDS011;13479;49.044;8.716;2024-02-15T13:40:29;1.45;;;0.60;;
25609;SDS011;13479;49.044;8.716;2024-02-15T13:42:59;2.17;;;0.70;;
25609;SDS011;13479;49.044;8.716;2024-02-15T13:45:29;4.20;;;0.50;;
25609;SDS011;13479;49.044;8.716;2024-02-15T13:47:56;1.67;;;0.60;;
25609;SDS011;13479;49.044;8.716;2024-02-15T13:50:22;1.88;;;0.68;;
25609;SDS011;13479;49.044;8.716;2024-02-15T13:52:48;3.55;;;0.90;;
25609;SDS011;13479;49.044;8.716;2024-02-15T13:55:14;2.92;;;0.80;;
25609;SDS011;13479;49.044;8.716;2024-02-15T13:57:44;2.70;;;0.63;;
25609;SDS011;13479;49.044;8.716;2024-02-15T14:00:12;2.15;;;0.65;;
25609;SDS011;13479;49.044;8.716;2024-02-15T14:02:40;4.22;;;0.88;;
25609;SDS011;13479;49.044;8.716;2024-02-15T14:05:06;1.95;;;0.63;;
25609;SDS011;13479;49.044;8.716;2024-02-15T14:07:33;1.33;;;0.60;;
25609;SDS011;13479;49.044;8.716;2024-02-15T14:10:03;2.47;;;0.65;;
25609;SDS011;13479;49.044;8.716;2024-02-15T14:12:29;4.13;;;0.60;;
25609;SDS011;13479;49.044;8.716;2024-02-15T14:14:55;3.30;;;0.80;;
25609;SDS011;13479;49.044;8.716;2024-02-15T14:17:21;4.65;;;0.80;;
25609;SDS011;13479;49.044;8.716;2024-02-15T14:19:46;2.95;;;0.80;;
25609;SDS011;13479;49.044;8.716;2024-02-15T14:22:12;3.72;;;0.75;;
25609;SDS011;13479;49.044;8.716;2024-02-15T14:24:41;4.18;;;0.80;;
25609;SDS011;13479;49.044;8.716;2024-02-15T14:27:06;3.90;;;0.80;;
25609;SDS011;13479;49.044;8.716;2024-02-15T14:29:31;2.25;;;0.80;;
25609;SDS011;13479;49.044;8.716;2024-02-15T14:32:00;1.45;;;0.80;;
25609;SDS011;13479;49.044;8.716;2024-02-15T14:34:44;2.45;;;0.70;;
25609;SDS011;13479;49.044;8.716;2024-02-15T14:37:09;2.78;;;0.70;;
25609;SDS011;13479;49.044;8.716;2024-02-15T14:39:35;2.88;;;1.00;;
25609;SDS011;13479;49.044;8.716;2024-02-15T14:42:00;2.58;;;0.80;;
25609;SDS011;13479;49.044;8.716;2024-02-15T14:44:25;2.55;;;0.73;;
25609;SDS011;13479;49.044;8.716;2024-02-15T14:46:50;1.00;;;0.55;;
25609;SDS011;13479;49.044;8.716;2024-02-15T14:49:15;2.22;;;1.05;;
25609;SDS011;13479;49.044;8.716;2024-02-15T14:51:41;3.35;;;1.27;;
25609;SDS011;13479;49.044;8.716;2024-02-15T14:54:07;4.28;;;0.80;;
25609;SDS011;13479;49.044;8.716;2024-02-15T14:56:33;2.63;;;0.85;;
25609;SDS011;13479;49.044;8.716;2024-02-15T14:58:58;4.63;;;0.98;;
25609;SDS011;13479;49.044;8.716;2024-02-15T15:01:25;5.45;;;1.20;;
25609;SDS011;13479;49.044;8.716;2024-02-15T15:03:53;3.58;;;1.00;;